sensor_id;sensor_type;location;lat;lon;timestamp;P1;durP1;ratioP1;P2;durP2;ratioP2
25111;SDS011;13092;51.996;4.458;2024-03-08T00:00:40;78.97;;;70.70;;
25111;SDS011;13092;51.996;4.458;2024-03-08T00:03:09;76.00;;;68.27;;
25111;SDS011;13092;51.996;4.458;2024-03-08T00:05:38;76.67;;;68.90;;
25111;SDS011;13092;51.996;4.458;2024-03-08T00:08:06;79.90;;;71.80;;
25111;SDS011;13092;51.996;4.458;2024-03-08T00:10:36;82.33;;;74.20;;
25111;SDS011;13092;51.996;4.458;2024-03-08T00:13:06;80.97;;;72.60;;
25111;SDS011;13092;51.996;4.458;2024-03-08T00:15:34;82.20;;;74.07;;
25111;SDS011;13092;51.996;4.458;2024-03-08T00:18:04;83.43;;;74.73;;
25111;SDS011;13092;51.996;4.458;2024-03-08T00:20:32;78.43;;;70.60;;
25111;SDS011;13092;51.996;4.458;2024-03-08T00:23:00;80.90;;;72.90;;
25111;SDS011;13092;51.996;4.458;2024-03-08T00:25:29;81.87;;;73.67;;
25111;SDS011;13092;51.996;4.458;2024-03-08T00:27:57;77.87;;;69.70;;
25111;SDS011;13092;51.996;4.458;2024-03-08T00:30:26;78.83;;;70.73;;
25111;SDS011;13092;51.996;4.458;2024-03-08T00:32:54;76.23;;;68.63;;
25111;SDS011;13092;51.996;4.458;2024-03-08T00:35:25;78.37;;;70.03;;
25111;SDS011;13092;51.996;4.458;2024-03-08T00:37:53;78.97;;;70.80;;
25111;SDS011;13092;51.996;4.458;2024-03-08T00:40:23;76.13;;;68.73;;
25111;SDS011;13092;51.996;4.458;2024-03-08T00:42:51;78.30;;;70.70;;
25111;SDS011;13092;51.996;4.458;2024-03-08T00:45:20;77.90;;;69.80;;
25111;SDS011;13092;51.996;4.458;2024-03-08T00:47:50;78.50;;;70.47;;
25111;SDS011;13092;51.996;4.458;2024-03-08T00:50:18;80.67;;;72.87;;
25111;SDS011;13092;51.996;4.458;2024-03-08T00:52:48;77.40;;;69.90;;
25111;SDS011;13092;51.996;4.458;2024-03-08T00:55:16;76.57;;;68.97;;
25111;SDS011;13092;51.996;4.458;2024-03-08T00:57:45;79.13;;;71.47;;
25111;SDS011;13092;51.996;4.458;2024-03-08T01:00:13;80.43;;;72.37;;
25111;SDS011;13092;51.996;4.458;2024-03-08T01:02:42;78.97;;;71.47;;
25111;SDS011;13092;51.996;4.458;2024-03-08T01:05:10;81.37;;;73.60;;
25111;SDS011;13092;51.996;4.458;2024-03-08T01:07:38;77.93;;;70.63;;
25111;SDS011;13092;51.996;4.458;2024-03-08T01:10:08;79.37;;;71.70;;
25111;SDS011;13092;51.996;4.458;2024-03-08T01:12:37;78.97;;;71.50;;
25111;SDS011;13092;51.996;4.458;2024-03-08T01:15:06;76.17;;;68.73;;
25111;SDS011;13092;51.996;4.458;2024-03-08T01:17:35;77.93;;;70.17;;
25111;SDS011;13092;51.996;4.458;2024-03-08T01:20:04;78.13;;;70.80;;
25111;SDS011;13092;51.996;4.458;2024-03-08T01:22:34;78.07;;;70.83;;
25111;SDS011;13092;51.996;4.458;2024-03-08T01:25:02;79.13;;;71.90;;
25111;SDS011;13092;51.996;4.458;2024-03-08T01:27:32;79.90;;;72.30;;
25111;SDS011;13092;51.996;4.458;2024-03-08T01:30:01;78.00;;;70.63;;
25111;SDS011;13092;51.996;4.458;2024-03-08T01:32:31;81.67;;;73.97;;
25111;SDS011;13092;51.996;4.458;2024-03-08T01:35:00;80.20;;;72.90;;
25111;SDS011;13092;51.996;4.458;2024-03-08T01:37:29;80.33;;;72.87;;
25111;SDS011;13092;51.996;4.458;2024-03-08T01:39:57;82.87;;;74.97;;
25111;SDS011;13092;51.996;4.458;2024-03-08T01:42:26;81.07;;;73.50;;
25111;SDS011;13092;51.996;4.458;2024-03-08T01:44:56;77.37;;;70.23;;
25111;SDS011;13092;51.996;4.458;2024-03-08T01:47:24;79.70;;;71.90;;
25111;SDS011;13092;51.996;4.458;2024-03-08T01:49:52;77.30;;;70.13;;
25111;SDS011;13092;51.996;4.458;2024-03-08T01:52:21;78.20;;;71.00;;
25111;SDS011;13092;51.996;4.458;2024-03-08T01:54:50;79.97;;;72.40;;
25111;SDS011;13092;51.996;4.458;2024-03-08T01:57:18;79.03;;;71.57;;
25111;SDS011;13092;51.996;4.458;2024-03-08T01:59:47;80.53;;;73.10;;
25111;SDS011;13092;51.996;4.458;2024-03-08T02:02:18;81.30;;;73.80;;
25111;SDS011;13092;51.996;4.458;2024-03-08T02:04:48;77.23;;;69.83;;
25111;SDS011;13092;51.996;4.458;2024-03-08T02:07:19;78.47;;;70.93;;
25111;SDS011;13092;51.996;4.458;2024-03-08T02:09:48;79.73;;;72.23;;
25111;SDS011;13092;51.996;4.458;2024-03-08T02:12:17;79.70;;;72.57;;
25111;SDS011;13092;51.996;4.458;2024-03-08T02:14:47;79.73;;;72.50;;
25111;SDS011;13092;51.996;4.458;2024-03-08T02:17:15;78.90;;;71.47;;
25111;SDS011;13092;51.996;4.458;2024-03-08T02:19:45;79.33;;;72.23;;
25111;SDS011;13092;51.996;4.458;2024-03-08T02:22:15;79.53;;;72.07;;
25111;SDS011;13092;51.996;4.458;2024-03-08T02:24:44;79.20;;;71.83;;
25111;SDS011;13092;51.996;4.458;2024-03-08T02:27:12;81.37;;;73.67;;
25111;SDS011;13092;51.996;4.458;2024-03-08T02:29:40;80.40;;;73.10;;
25111;SDS011;13092;51.996;4.458;2024-03-08T02:32:12;80.00;;;72.70;;
25111;SDS011;13092;51.996;4.458;2024-03-08T02:34:40;80.80;;;73.07;;
25111;SDS011;13092;51.996;4.458;2024-03-08T02:37:08;78.90;;;71.47;;
25111;SDS011;13092;51.996;4.458;2024-03-08T02:39:38;81.23;;;73.27;;
25111;SDS011;13092;51.996;4.458;2024-03-08T02:42:07;82.07;;;74.67;;
25111;SDS011;13092;51.996;4.458;2024-03-08T02:44:35;79.17;;;72.00;;
25111;SDS011;13092;51.996;4.458;2024-03-08T02:47:04;81.10;;;73.57;;
25111;SDS011;13092;51.996;4.458;2024-03-08T02:49:32;80.87;;;73.63;;
25111;SDS011;13092;51.996;4.458;2024-03-08T02:52:00;82.70;;;74.93;;
25111;SDS011;13092;51.996;4.458;2024-03-08T02:54:28;82.60;;;75.10;;
25111;SDS011;13092;51.996;4.458;2024-03-08T02:56:58;80.73;;;73.63;;
25111;SDS011;13092;51.996;4.458;2024-03-08T02:59:26;80.00;;;72.80;;
25111;SDS011;13092;51.996;4.458;2024-03-08T03:01:55;80.00;;;72.67;;
25111;SDS011;13092;51.996;4.458;2024-03-08T03:04:23;79.83;;;72.83;;
25111;SDS011;13092;51.996;4.458;2024-03-08T03:06:51;82.27;;;74.90;;
25111;SDS011;13092;51.996;4.458;2024-03-08T03:09:19;81.87;;;73.67;;
25111;SDS011;13092;51.996;4.458;2024-03-08T03:11:54;81.67;;;74.03;;
25111;SDS011;13092;51.996;4.458;2024-03-08T03:14:24;81.67;;;73.80;;
25111;SDS011;13092;51.996;4.458;2024-03-08T03:16:53;80.33;;;73.00;;
25111;SDS011;13092;51.996;4.458;2024-03-08T03:19:21;79.90;;;72.30;;
25111;SDS011;13092;51.996;4.458;2024-03-08T03:21:50;81.43;;;73.67;;
25111;SDS011;13092;51.996;4.458;2024-03-08T03:24:19;80.27;;;72.77;;
25111;SDS011;13092;51.996;4.458;2024-03-08T03:26:47;78.53;;;70.97;;
25111;SDS011;13092;51.996;4.458;2024-03-08T03:29:16;78.73;;;71.33;;
25111;SDS011;13092;51.996;4.458;2024-03-08T03:31:46;79.63;;;72.20;;
25111;SDS011;13092;51.996;4.458;2024-03-08T03:34:14;78.50;;;71.03;;
25111;SDS011;13092;51.996;4.458;2024-03-08T03:36:43;77.83;;;70.13;;
25111;SDS011;13092;51.996;4.458;2024-03-08T03:39:13;78.43;;;70.83;;
25111;SDS011;13092;51.996;4.458;2024-03-08T03:41:43;81.20;;;73.40;;
25111;SDS011;13092;51.996;4.458;2024-03-08T03:44:12;79.90;;;72.27;;
25111;SDS011;13092;51.996;4.458;2024-03-08T03:46:41;78.50;;;71.10;;
25111;SDS011;13092;51.996;4.458;2024-03-08T03:49:13;79.97;;;72.27;;
25111;SDS011;13092;51.996;4.458;2024-03-08T03:51:41;79.43;;;71.73;;
25111;SDS011;13092;51.996;4.458;2024-03-08T03:54:10;76.03;;;68.73;;
25111;SDS011;13092;51.996;4.458;2024-03-08T03:56:39;79.17;;;71.27;;
25111;SDS011;13092;51.996;4.458;2024-03-08T03:59:07;78.17;;;70.93;;
25111;SDS011;13092;51.996;4.458;2024-03-08T04:01:35;79.63;;;71.83;;
25111;SDS011;13092;51.996;4.458;2024-03-08T04:04:05;78.47;;;71.50;;
25111;SDS011;13092;51.996;4.458;2024-03-08T04:06:34;78.60;;;71.40;;
25111;SDS011;13092;51.996;4.458;2024-03-08T04:09:02;77.70;;;70.57;;
25111;SDS011;13092;51.996;4.458;2024-03-08T04:11:32;79.53;;;72.30;;
25111;SDS011;13092;51.996;4.458;2024-03-08T04:14:00;78.67;;;71.47;;
25111;SDS011;13092;51.996;4.458;2024-03-08T04:16:28;77.63;;;70.10;;
25111;SDS011;13092;51.996;4.458;2024-03-08T04:18:56;78.03;;;70.73;;
25111;SDS011;13092;51.996;4.458;2024-03-08T04:21:25;78.90;;;71.63;;
25111;SDS011;13092;51.996;4.458;2024-03-08T04:23:55;78.13;;;70.87;;
25111;SDS011;13092;51.996;4.458;2024-03-08T04:26:23;79.00;;;71.63;;
25111;SDS011;13092;51.996;4.458;2024-03-08T04:28:52;79.30;;;71.90;;
25111;SDS011;13092;51.996;4.458;2024-03-08T04:31:20;76.93;;;69.77;;
25111;SDS011;13092;51.996;4.458;2024-03-08T04:33:49;80.40;;;72.77;;
25111;SDS011;13092;51.996;4.458;2024-03-08T04:36:17;80.20;;;73.00;;
25111;SDS011;13092;51.996;4.458;2024-03-08T04:38:46;82.03;;;74.30;;
25111;SDS011;13092;51.996;4.458;2024-03-08T04:41:16;80.07;;;72.63;;
25111;SDS011;13092;51.996;4.458;2024-03-08T04:43:44;79.67;;;72.33;;
25111;SDS011;13092;51.996;4.458;2024-03-08T04:46:13;79.90;;;72.40;;
25111;SDS011;13092;51.996;4.458;2024-03-08T04:48:41;84.17;;;75.93;;
25111;SDS011;13092;51.996;4.458;2024-03-08T04:51:10;81.33;;;73.87;;
25111;SDS011;13092;51.996;4.458;2024-03-08T04:53:38;80.30;;;72.80;;
25111;SDS011;13092;51.996;4.458;2024-03-08T04:56:07;79.20;;;71.93;;
25111;SDS011;13092;51.996;4.458;2024-03-08T04:58:36;77.53;;;70.53;;
25111;SDS011;13092;51.996;4.458;2024-03-08T05:01:05;77.80;;;70.53;;
25111;SDS011;13092;51.996;4.458;2024-03-08T05:03:36;78.43;;;71.13;;
25111;SDS011;13092;51.996;4.458;2024-03-08T05:06:05;77.53;;;70.43;;
25111;SDS011;13092;51.996;4.458;2024-03-08T05:08:35;78.57;;;71.50;;
25111;SDS011;13092;51.996;4.458;2024-03-08T05:11:05;76.13;;;69.23;;
25111;SDS011;13092;51.996;4.458;2024-03-08T05:13:34;78.60;;;71.30;;
25111;SDS011;13092;51.996;4.458;2024-03-08T05:16:04;79.90;;;72.47;;
25111;SDS011;13092;51.996;4.458;2024-03-08T05:18:33;78.33;;;71.20;;
25111;SDS011;13092;51.996;4.458;2024-03-08T05:21:02;79.47;;;72.07;;
25111;SDS011;13092;51.996;4.458;2024-03-08T05:23:31;80.07;;;72.80;;
25111;SDS011;13092;51.996;4.458;2024-03-08T05:26:00;78.60;;;71.37;;
25111;SDS011;13092;51.996;4.458;2024-03-08T05:28:29;80.03;;;72.43;;
25111;SDS011;13092;51.996;4.458;2024-03-08T05:30:58;78.77;;;71.30;;
25111;SDS011;13092;51.996;4.458;2024-03-08T05:33:27;80.53;;;73.10;;
25111;SDS011;13092;51.996;4.458;2024-03-08T05:35:56;78.97;;;71.77;;
25111;SDS011;13092;51.996;4.458;2024-03-08T05:38:24;78.60;;;71.23;;
25111;SDS011;13092;51.996;4.458;2024-03-08T05:40:52;78.57;;;71.40;;
25111;SDS011;13092;51.996;4.458;2024-03-08T05:43:20;74.67;;;67.60;;
25111;SDS011;13092;51.996;4.458;2024-03-08T05:45:48;76.57;;;69.57;;
25111;SDS011;13092;51.996;4.458;2024-03-08T05:48:17;79.30;;;71.87;;
25111;SDS011;13092;51.996;4.458;2024-03-08T05:50:47;78.47;;;71.43;;
25111;SDS011;13092;51.996;4.458;2024-03-08T05:53:15;77.47;;;70.27;;
25111;SDS011;13092;51.996;4.458;2024-03-08T05:55:43;78.57;;;71.20;;
25111;SDS011;13092;51.996;4.458;2024-03-08T05:58:12;79.93;;;72.23;;
25111;SDS011;13092;51.996;4.458;2024-03-08T06:00:40;82.27;;;74.73;;
25111;SDS011;13092;51.996;4.458;2024-03-08T06:03:08;80.07;;;72.20;;
25111;SDS011;13092;51.996;4.458;2024-03-08T06:05:38;81.70;;;74.13;;
25111;SDS011;13092;51.996;4.458;2024-03-08T06:08:10;82.17;;;74.33;;
25111;SDS011;13092;51.996;4.458;2024-03-08T06:10:38;83.83;;;76.13;;
25111;SDS011;13092;51.996;4.458;2024-03-08T06:13:06;81.10;;;73.57;;
25111;SDS011;13092;51.996;4.458;2024-03-08T06:15:34;81.97;;;74.33;;
25111;SDS011;13092;51.996;4.458;2024-03-08T06:18:03;80.77;;;73.20;;
25111;SDS011;13092;51.996;4.458;2024-03-08T06:20:32;80.83;;;73.30;;
25111;SDS011;13092;51.996;4.458;2024-03-08T06:23:01;78.07;;;70.77;;
25111;SDS011;13092;51.996;4.458;2024-03-08T06:25:30;81.13;;;73.23;;
25111;SDS011;13092;51.996;4.458;2024-03-08T06:27:58;78.90;;;71.30;;
25111;SDS011;13092;51.996;4.458;2024-03-08T06:30:27;79.40;;;71.83;;
25111;SDS011;13092;51.996;4.458;2024-03-08T06:32:55;75.63;;;68.43;;
25111;SDS011;13092;51.996;4.458;2024-03-08T06:35:23;76.83;;;69.33;;
25111;SDS011;13092;51.996;4.458;2024-03-08T06:37:52;77.37;;;69.97;;
25111;SDS011;13092;51.996;4.458;2024-03-08T06:40:20;77.50;;;70.17;;
25111;SDS011;13092;51.996;4.458;2024-03-08T06:42:52;79.93;;;72.30;;
25111;SDS011;13092;51.996;4.458;2024-03-08T06:45:20;78.80;;;71.20;;
25111;SDS011;13092;51.996;4.458;2024-03-08T06:47:50;76.30;;;69.07;;
25111;SDS011;13092;51.996;4.458;2024-03-08T06:50:20;76.60;;;69.10;;
25111;SDS011;13092;51.996;4.458;2024-03-08T06:52:48;78.87;;;70.77;;
25111;SDS011;13092;51.996;4.458;2024-03-08T06:55:20;75.47;;;67.97;;
25111;SDS011;13092;51.996;4.458;2024-03-08T06:57:48;76.70;;;69.17;;
25111;SDS011;13092;51.996;4.458;2024-03-08T07:00:22;75.67;;;67.93;;
25111;SDS011;13092;51.996;4.458;2024-03-08T07:02:53;74.17;;;66.83;;
25111;SDS011;13092;51.996;4.458;2024-03-08T07:05:27;73.80;;;66.50;;
25111;SDS011;13092;51.996;4.458;2024-03-08T07:07:57;75.80;;;68.57;;
25111;SDS011;13092;51.996;4.458;2024-03-08T07:10:26;72.30;;;65.50;;
25111;SDS011;13092;51.996;4.458;2024-03-08T07:12:55;77.23;;;70.07;;
25111;SDS011;13092;51.996;4.458;2024-03-08T07:15:25;77.37;;;70.20;;
25111;SDS011;13092;51.996;4.458;2024-03-08T07:17:55;73.70;;;66.70;;
25111;SDS011;13092;51.996;4.458;2024-03-08T07:20:24;75.00;;;67.83;;
25111;SDS011;13092;51.996;4.458;2024-03-08T07:22:56;74.53;;;67.60;;
25111;SDS011;13092;51.996;4.458;2024-03-08T07:25:25;75.00;;;68.13;;
25111;SDS011;13092;51.996;4.458;2024-03-08T07:27:55;75.53;;;68.57;;
25111;SDS011;13092;51.996;4.458;2024-03-08T07:30:26;71.73;;;65.00;;
25111;SDS011;13092;51.996;4.458;2024-03-08T07:33:12;68.93;;;62.13;;
25111;SDS011;13092;51.996;4.458;2024-03-08T07:35:41;71.73;;;65.23;;
25111;SDS011;13092;51.996;4.458;2024-03-08T07:38:11;69.43;;;63.03;;
25111;SDS011;13092;51.996;4.458;2024-03-08T07:40:39;71.00;;;64.60;;
25111;SDS011;13092;51.996;4.458;2024-03-08T07:43:11;70.07;;;63.70;;
25111;SDS011;13092;51.996;4.458;2024-03-08T07:45:43;70.63;;;64.33;;
25111;SDS011;13092;51.996;4.458;2024-03-08T07:48:11;68.53;;;62.33;;
25111;SDS011;13092;51.996;4.458;2024-03-08T07:50:40;67.27;;;61.10;;
25111;SDS011;13092;51.996;4.458;2024-03-08T07:53:08;67.10;;;61.03;;
25111;SDS011;13092;51.996;4.458;2024-03-08T07:55:37;69.00;;;62.63;;
25111;SDS011;13092;51.996;4.458;2024-03-08T07:58:09;65.57;;;59.63;;
25111;SDS011;13092;51.996;4.458;2024-03-08T08:00:37;64.80;;;58.93;;
25111;SDS011;13092;51.996;4.458;2024-03-08T08:03:07;66.37;;;60.43;;
25111;SDS011;13092;51.996;4.458;2024-03-08T08:05:37;67.20;;;61.23;;
25111;SDS011;13092;51.996;4.458;2024-03-08T08:08:07;66.90;;;60.63;;
25111;SDS011;13092;51.996;4.458;2024-03-08T08:10:37;64.70;;;58.80;;
25111;SDS011;13092;51.996;4.458;2024-03-08T08:13:05;61.50;;;56.00;;
25111;SDS011;13092;51.996;4.458;2024-03-08T08:15:34;62.97;;;57.10;;
25111;SDS011;13092;51.996;4.458;2024-03-08T08:18:02;61.30;;;55.63;;
25111;SDS011;13092;51.996;4.458;2024-03-08T08:20:35;60.80;;;55.20;;
25111;SDS011;13092;51.996;4.458;2024-03-08T08:23:04;58.57;;;53.20;;
25111;SDS011;13092;51.996;4.458;2024-03-08T08:25:32;58.13;;;52.90;;
25111;SDS011;13092;51.996;4.458;2024-03-08T08:28:02;57.23;;;52.07;;
25111;SDS011;13092;51.996;4.458;2024-03-08T08:30:32;59.50;;;54.00;;
25111;SDS011;13092;51.996;4.458;2024-03-08T08:33:00;54.77;;;49.60;;
25111;SDS011;13092;51.996;4.458;2024-03-08T08:35:29;56.20;;;50.87;;
25111;SDS011;13092;51.996;4.458;2024-03-08T08:37:58;54.20;;;49.17;;
25111;SDS011;13092;51.996;4.458;2024-03-08T08:40:27;54.70;;;49.53;;
25111;SDS011;13092;51.996;4.458;2024-03-08T08:42:57;52.87;;;47.87;;
25111;SDS011;13092;51.996;4.458;2024-03-08T08:45:26;54.97;;;49.90;;
25111;SDS011;13092;51.996;4.458;2024-03-08T08:47:54;54.70;;;49.47;;
25111;SDS011;13092;51.996;4.458;2024-03-08T08:50:23;55.80;;;50.83;;
25111;SDS011;13092;51.996;4.458;2024-03-08T08:52:55;50.70;;;45.80;;
25111;SDS011;13092;51.996;4.458;2024-03-08T08:55:25;52.57;;;47.27;;
25111;SDS011;13092;51.996;4.458;2024-03-08T08:57:53;50.50;;;45.60;;
25111;SDS011;13092;51.996;4.458;2024-03-08T09:00:23;48.03;;;43.27;;
25111;SDS011;13092;51.996;4.458;2024-03-08T09:02:54;51.40;;;46.53;;
25111;SDS011;13092;51.996;4.458;2024-03-08T09:05:27;49.77;;;44.80;;
25111;SDS011;13092;51.996;4.458;2024-03-08T09:08:04;44.07;;;39.57;;
25111;SDS011;13092;51.996;4.458;2024-03-08T09:10:35;43.27;;;38.70;;
25111;SDS011;13092;51.996;4.458;2024-03-08T09:13:05;42.83;;;38.53;;
25111;SDS011;13092;51.996;4.458;2024-03-08T09:15:43;42.73;;;38.30;;
25111;SDS011;13092;51.996;4.458;2024-03-08T09:18:11;44.20;;;38.73;;
25111;SDS011;13092;51.996;4.458;2024-03-08T09:20:40;42.00;;;37.67;;
25111;SDS011;13092;51.996;4.458;2024-03-08T09:23:10;40.93;;;36.63;;
25111;SDS011;13092;51.996;4.458;2024-03-08T09:25:40;39.33;;;35.13;;
25111;SDS011;13092;51.996;4.458;2024-03-08T09:28:11;39.67;;;35.53;;
25111;SDS011;13092;51.996;4.458;2024-03-08T09:30:40;42.47;;;37.13;;
25111;SDS011;13092;51.996;4.458;2024-03-08T09:33:22;38.30;;;34.10;;
25111;SDS011;13092;51.996;4.458;2024-03-08T09:35:50;38.47;;;34.37;;
25111;SDS011;13092;51.996;4.458;2024-03-08T09:38:19;40.97;;;36.67;;
25111;SDS011;13092;51.996;4.458;2024-03-08T09:40:49;36.83;;;31.93;;
25111;SDS011;13092;51.996;4.458;2024-03-08T09:43:17;38.20;;;30.03;;
25111;SDS011;13092;51.996;4.458;2024-03-08T09:45:48;36.50;;;30.80;;
25111;SDS011;13092;51.996;4.458;2024-03-08T09:48:17;36.97;;;29.97;;
25111;SDS011;13092;51.996;4.458;2024-03-08T09:50:46;34.40;;;28.97;;
25111;SDS011;13092;51.996;4.458;2024-03-08T09:53:15;38.17;;;31.13;;
25111;SDS011;13092;51.996;4.458;2024-03-08T09:55:44;34.93;;;27.53;;
25111;SDS011;13092;51.996;4.458;2024-03-08T09:58:14;36.00;;;28.27;;
25111;SDS011;13092;51.996;4.458;2024-03-08T10:00:57;32.73;;;27.57;;
25111;SDS011;13092;51.996;4.458;2024-03-08T10:03:31;37.00;;;26.10;;
25111;SDS011;13092;51.996;4.458;2024-03-08T10:06:04;33.83;;;24.73;;
25111;SDS011;13092;51.996;4.458;2024-03-08T10:08:36;36.03;;;25.07;;
25111;SDS011;13092;51.996;4.458;2024-03-08T10:11:09;34.90;;;24.00;;
25111;SDS011;13092;51.996;4.458;2024-03-08T10:13:40;33.03;;;24.50;;
25111;SDS011;13092;51.996;4.458;2024-03-08T10:16:09;33.70;;;25.47;;
25111;SDS011;13092;51.996;4.458;2024-03-08T10:18:40;36.83;;;25.63;;
25111;SDS011;13092;51.996;4.458;2024-03-08T10:21:13;33.13;;;23.57;;
25111;SDS011;13092;51.996;4.458;2024-03-08T10:23:42;31.83;;;21.67;;
25111;SDS011;13092;51.996;4.458;2024-03-08T10:26:11;31.30;;;23.30;;
25111;SDS011;13092;51.996;4.458;2024-03-08T10:28:43;32.40;;;21.83;;
25111;SDS011;13092;51.996;4.458;2024-03-08T10:31:14;30.47;;;20.13;;
25111;SDS011;13092;51.996;4.458;2024-03-08T10:33:45;29.77;;;22.00;;
25111;SDS011;13092;51.996;4.458;2024-03-08T10:36:14;37.30;;;21.97;;
25111;SDS011;13092;51.996;4.458;2024-03-08T10:38:42;30.47;;;21.80;;
25111;SDS011;13092;51.996;4.458;2024-03-08T10:41:14;28.20;;;19.90;;
25111;SDS011;13092;51.996;4.458;2024-03-08T10:43:51;27.20;;;19.57;;
25111;SDS011;13092;51.996;4.458;2024-03-08T10:46:35;32.90;;;21.10;;
25111;SDS011;13092;51.996;4.458;2024-03-08T10:49:16;31.47;;;21.17;;
25111;SDS011;13092;51.996;4.458;2024-03-08T10:51:45;28.67;;;20.53;;
25111;SDS011;13092;51.996;4.458;2024-03-08T10:54:16;28.60;;;20.23;;
25111;SDS011;13092;51.996;4.458;2024-03-08T10:56:46;29.97;;;18.90;;
25111;SDS011;13092;51.996;4.458;2024-03-08T10:59:18;28.47;;;19.13;;
25111;SDS011;13092;51.996;4.458;2024-03-08T11:01:47;28.00;;;19.43;;
25111;SDS011;13092;51.996;4.458;2024-03-08T11:04:17;27.07;;;18.70;;
25111;SDS011;13092;51.996;4.458;2024-03-08T11:06:50;28.30;;;18.95;;
25111;SDS011;13092;51.996;4.458;2024-03-08T11:09:27;30.38;;;19.85;;
25111;SDS011;13092;51.996;4.458;2024-03-08T11:15:00;28.65;;;19.73;;
25111;SDS011;13092;51.996;4.458;2024-03-08T11:17:40;27.80;;;18.83;;
25111;SDS011;13092;51.996;4.458;2024-03-08T11:20:12;28.25;;;19.25;;
25111;SDS011;13092;51.996;4.458;2024-03-08T11:22:47;27.88;;;19.83;;
25111;SDS011;13092;51.996;4.458;2024-03-08T11:25:30;29.25;;;18.88;;
25111;SDS011;13092;51.996;4.458;2024-03-08T11:28:06;26.83;;;18.85;;
25111;SDS011;13092;51.996;4.458;2024-03-08T11:30:37;30.52;;;19.02;;
25111;SDS011;13092;51.996;4.458;2024-03-08T11:33:06;27.50;;;18.90;;
25111;SDS011;13092;51.996;4.458;2024-03-08T11:35:40;27.55;;;19.40;;
25111;SDS011;13092;51.996;4.458;2024-03-08T11:38:12;26.55;;;19.08;;
25111;SDS011;13092;51.996;4.458;2024-03-08T11:40:45;26.80;;;18.80;;
25111;SDS011;13092;51.996;4.458;2024-03-08T11:43:16;26.45;;;18.80;;
25111;SDS011;13092;51.996;4.458;2024-03-08T11:45:46;25.90;;;17.65;;
25111;SDS011;13092;51.996;4.458;2024-03-08T11:48:14;26.75;;;17.48;;
25111;SDS011;13092;51.996;4.458;2024-03-08T11:50:42;26.05;;;16.63;;
25111;SDS011;13092;51.996;4.458;2024-03-08T11:53:10;25.70;;;18.33;;
25111;SDS011;13092;51.996;4.458;2024-03-08T11:55:40;26.02;;;17.80;;
25111;SDS011;13092;51.996;4.458;2024-03-08T11:58:09;24.88;;;18.30;;
25111;SDS011;13092;51.996;4.458;2024-03-08T12:00:39;24.90;;;17.42;;
25111;SDS011;13092;51.996;4.458;2024-03-08T12:03:09;27.70;;;18.42;;
25111;SDS011;13092;51.996;4.458;2024-03-08T12:05:38;24.95;;;17.65;;
25111;SDS011;13092;51.996;4.458;2024-03-08T12:08:06;25.98;;;17.75;;
25111;SDS011;13092;51.996;4.458;2024-03-08T12:10:40;27.58;;;17.55;;
25111;SDS011;13092;51.996;4.458;2024-03-08T12:13:09;24.10;;;17.90;;
25111;SDS011;13092;51.996;4.458;2024-03-08T12:15:40;26.13;;;17.95;;
25111;SDS011;13092;51.996;4.458;2024-03-08T12:18:12;26.30;;;17.42;;
25111;SDS011;13092;51.996;4.458;2024-03-08T12:20:40;27.10;;;17.80;;
25111;SDS011;13092;51.996;4.458;2024-03-08T12:23:15;25.73;;;16.88;;
25111;SDS011;13092;51.996;4.458;2024-03-08T12:25:44;23.95;;;17.33;;
25111;SDS011;13092;51.996;4.458;2024-03-08T12:28:14;31.13;;;18.20;;
25111;SDS011;13092;51.996;4.458;2024-03-08T12:30:47;25.90;;;17.60;;
25111;SDS011;13092;51.996;4.458;2024-03-08T12:33:19;25.15;;;17.23;;
25111;SDS011;13092;51.996;4.458;2024-03-08T12:35:50;24.40;;;17.35;;
25111;SDS011;13092;51.996;4.458;2024-03-08T12:38:22;26.85;;;17.55;;
25111;SDS011;13092;51.996;4.458;2024-03-08T12:40:54;25.70;;;17.25;;
25111;SDS011;13092;51.996;4.458;2024-03-08T12:43:24;23.70;;;17.98;;
25111;SDS011;13092;51.996;4.458;2024-03-08T12:45:52;27.17;;;18.38;;
25111;SDS011;13092;51.996;4.458;2024-03-08T12:48:25;25.10;;;18.33;;
25111;SDS011;13092;51.996;4.458;2024-03-08T12:50:53;24.80;;;17.40;;
25111;SDS011;13092;51.996;4.458;2024-03-08T12:53:21;25.92;;;16.58;;
25111;SDS011;13092;51.996;4.458;2024-03-08T12:55:52;27.55;;;18.10;;
25111;SDS011;13092;51.996;4.458;2024-03-08T12:58:22;28.30;;;17.33;;
25111;SDS011;13092;51.996;4.458;2024-03-08T13:00:52;23.98;;;16.52;;
25111;SDS011;13092;51.996;4.458;2024-03-08T13:03:20;26.05;;;17.73;;
25111;SDS011;13092;51.996;4.458;2024-03-08T13:05:51;23.85;;;16.35;;
25111;SDS011;13092;51.996;4.458;2024-03-08T13:08:19;23.27;;;16.52;;
25111;SDS011;13092;51.996;4.458;2024-03-08T13:10:51;24.15;;;16.95;;
25111;SDS011;13092;51.996;4.458;2024-03-08T13:13:21;26.00;;;17.00;;
25111;SDS011;13092;51.996;4.458;2024-03-08T13:15:51;26.25;;;17.85;;
25111;SDS011;13092;51.996;4.458;2024-03-08T13:18:19;23.83;;;16.65;;
25111;SDS011;13092;51.996;4.458;2024-03-08T13:20:48;25.23;;;16.58;;
25111;SDS011;13092;51.996;4.458;2024-03-08T13:23:20;24.92;;;16.48;;
25111;SDS011;13092;51.996;4.458;2024-03-08T13:25:48;23.88;;;16.90;;
25111;SDS011;13092;51.996;4.458;2024-03-08T13:28:17;24.00;;;16.80;;
25111;SDS011;13092;51.996;4.458;2024-03-08T13:30:50;24.77;;;17.67;;
25111;SDS011;13092;51.996;4.458;2024-03-08T13:33:24;26.98;;;17.65;;
25111;SDS011;13092;51.996;4.458;2024-03-08T13:35:53;25.20;;;17.05;;
25111;SDS011;13092;51.996;4.458;2024-03-08T13:38:32;24.90;;;16.70;;
25111;SDS011;13092;51.996;4.458;2024-03-08T13:41:02;24.23;;;16.25;;
25111;SDS011;13092;51.996;4.458;2024-03-08T13:43:31;23.35;;;15.68;;
25111;SDS011;13092;51.996;4.458;2024-03-08T13:46:01;23.60;;;16.15;;
25111;SDS011;13092;51.996;4.458;2024-03-08T13:48:29;24.67;;;17.20;;
25111;SDS011;13092;51.996;4.458;2024-03-08T13:50:58;25.65;;;16.02;;
25111;SDS011;13092;51.996;4.458;2024-03-08T13:53:27;24.65;;;16.17;;
25111;SDS011;13092;51.996;4.458;2024-03-08T13:55:57;24.77;;;17.15;;
25111;SDS011;13092;51.996;4.458;2024-03-08T13:58:26;24.58;;;16.30;;
25111;SDS011;13092;51.996;4.458;2024-03-08T14:00:55;23.58;;;16.70;;
25111;SDS011;13092;51.996;4.458;2024-03-08T14:03:23;24.45;;;16.70;;
25111;SDS011;13092;51.996;4.458;2024-03-08T14:05:52;25.98;;;17.13;;
25111;SDS011;13092;51.996;4.458;2024-03-08T14:08:22;28.83;;;17.00;;
25111;SDS011;13092;51.996;4.458;2024-03-08T14:10:52;25.85;;;17.88;;
25111;SDS011;13092;51.996;4.458;2024-03-08T14:13:22;22.92;;;16.75;;
25111;SDS011;13092;51.996;4.458;2024-03-08T14:15:54;23.40;;;16.48;;
25111;SDS011;13092;51.996;4.458;2024-03-08T14:18:24;24.27;;;16.75;;
25111;SDS011;13092;51.996;4.458;2024-03-08T14:20:59;25.60;;;17.23;;
25111;SDS011;13092;51.996;4.458;2024-03-08T14:23:41;30.73;;;16.95;;
25111;SDS011;13092;51.996;4.458;2024-03-08T14:26:14;24.77;;;17.55;;
25111;SDS011;13092;51.996;4.458;2024-03-08T14:28:44;24.10;;;17.25;;
25111;SDS011;13092;51.996;4.458;2024-03-08T14:31:18;25.02;;;16.92;;
25111;SDS011;13092;51.996;4.458;2024-03-08T14:33:52;25.63;;;17.00;;
25111;SDS011;13092;51.996;4.458;2024-03-08T14:36:22;23.65;;;16.45;;
25111;SDS011;13092;51.996;4.458;2024-03-08T14:38:52;26.15;;;16.10;;